Details From LEAS - Asturias
To LEXJ - Santander
Flight Number -
Tags generated
Created
Modified
Stats Distance 97 nm / 180 km
Max Altitude 7,500 ft / 2,286 m
Waypoints 5
Social Downloads 6
Likes 0
Share VATSIM

Download

Looking for another format? Having issues loading an existing format? Contact us
Advertisement - Login to hide

Notes

Basic altitude profile: - Ascent Rate: 2500ft/min - Ascent Speed: 250kts - Cruise Altitude: 35000ft - Cruise Speed: 420kts - Descent Rate: 1500ft/min - Descent Speed: 250kts Options: - Use NATs: yes - Use PACOTS: yes - Use low airways: yes - Use high airways: yes

Route

LEAS MUSIL R42 SNR LEXJ

ID Type Via Altitude Latitude Longitude Leg Dist Tot Dist Heading (true) Name
O LEAS APT - 0 ft / 0 m 43.56350˚ -6.03467˚ - 0 nm - Asturias
MUSIL FIX - 7,300 ft / 2,225 m 43.54284˚ -5.56393˚ 20 nm 20 nm 93° / 94° -
BEATI FIX R42 (AWY-LO) 7,500 ft / 2,286 m 43.47626˚ -4.33333˚ 53 nm 74 nm 94° / 95° -
SNR VOR R42 (AWY-LO) 7,500 ft / 2,286 m 43.44978˚ -3.90241˚ 18 nm 93 nm 95° / 95° SANTANDER VOR-DME
O LEXJ APT - 0 ft / 0 m 43.42719˚ -3.82047˚ 3 nm 96 nm 111° / 111° Santander

Altitude Profile

Advertisement - Login to hide

LEAS

Details ICAO LEAS (OVD)
Name Asturias
Region Spain
Timezone Europe/Madrid (UTC+1.0)
Stats Elevation 416 ft / 127 m (AMSL)
Location 43.563496° -6.034670°
Runways 1
Magnetic Variation 1.629° W

METAR

LEAS 130330Z AUTO 24011KT 200V270 6000 NSC ///// Q1019

Decode

TAF

TAF LEAS 130200Z 1303/1403 23009KT 9999 SCT030 SCT060 TX16/1314Z TN10/1306Z TEMPO 1303/1324 25015G28KT TEMPO 1318/1403 3000 RA BKN014 TEMPO 1321/1403 29010KT BKN010

Decode

Departure Runways

ID Width Length Bearing (true) Bearing (mag) Surface Threshold Offset Overrun Length
11 148 ft / 45 m 7,216 ft / 2,200 m 108.09° 109.72° Asphalt 0 ft / 0 m 164 ft / 50 m
29 148 ft / 45 m 7,216 ft / 2,200 m 288.10° 289.73° Asphalt 0 ft / 0 m 164 ft / 50 m

LEXJ

Details ICAO LEXJ (SDR)
Name Santander
Region Spain
Timezone Europe/Madrid (UTC+1.0)
Stats Elevation 16 ft / 5 m (AMSL)
Location 43.427188° -3.820470°
Runways 1
Magnetic Variation 0.913° W

METAR

LEXJ 130400Z AUTO 22009KT 190V250 8000 SCT046/// BKN059/// BKN080/// 10/05 Q1019

Decode

TAF

TAF TAF LEXJ 130200Z 1303/1403 22009KT 9999 SCT050 TX15/1314Z TN08/1306Z PROB40 TEMPO 1306/1309 22015G25KT TEMPO 1318/1403 3000 RA PROB40 TEMPO 1321/1403 28010KT 3000 RA BKN010

Decode

Destination Runways

ID Width Length Bearing (true) Bearing (mag) Surface Threshold Offset Overrun Length
11 148 ft / 45 m 7,597 ft / 2,316 m 110.20° 111.11° Asphalt 0 ft / 0 m 98 ft / 30 m
29 148 ft / 45 m 7,597 ft / 2,316 m 290.22° 291.13° Asphalt 0 ft / 0 m 0 ft / 0 m

Approach Navaids

Runway Type Ident Frequency Range Bearing (true) Bearing (mag) Slope Elevation
29 Localiser STA 110.90 MHz 18 nm / 33 km 290.19° 291.10° - 16 ft / 5 m (AMSL)
29 Glidescope STA 110.90 MHz 10 nm / 19 km 290.21° 291.12° 3.00° 16 ft / 5 m (AMSL)
29 DME STA 110.90 MHz 18 nm / 33 km - - - 26 ft / 8 m (AMSL)

Popular Alternatives